Giard, Iowa
Current Conditions -  °F | °C
As of 10:35 PM on Saturday 25 Oct 2014 (Local Time) from KPDC Reporting Station
Clear Clear  
Wind Chill: 45°   Ceiling: Unl
Heat Index: 45°   Visibility: 10mi
Dew Point: 33°   Wind: 3mph
Humidity: 64%   Direction: 110°ESE
Pressure: 30.03"   Gusts: NA
Location:  43.0056°N, 91.2139°W
Report Text: KPDC 260335Z AUTO 11003KT 10SM CLR 07/01 A3003 RMK AO2 T00710007
Loading
Personal Weather Stations






























Interactive Weather Map
Tropical Storm Tracking
New forecast layout! Learn more

10-Day Weather Forecast

Advertisements
Track Severe Weather on mobile